createdAt,value
2017-09-03T00:00:15.467Z,0
2017-09-03T00:01:24.393Z,0
2017-09-03T00:02:33.405Z,0
2017-09-03T00:03:42.307Z,0
2017-09-03T00:04:51.194Z,0
2017-09-03T00:06:00.026Z,0
2017-09-03T00:07:08.853Z,0
2017-09-03T00:08:17.690Z,0
2017-09-03T00:09:26.513Z,0
2017-09-03T00:10:35.344Z,0
2017-09-03T00:11:44.320Z,0
2017-09-03T00:12:53.297Z,0
2017-09-03T00:14:02.257Z,0
2017-09-03T00:15:11.472Z,0
2017-09-03T00:16:20.361Z,0
2017-09-03T00:17:29.244Z,0
2017-09-03T00:18:38.613Z,0
2017-09-03T00:19:47.618Z,0
2017-09-03T00:20:56.445Z,0
2017-09-03T00:22:05.359Z,0
2017-09-03T00:23:14.445Z,0
2017-09-03T00:24:23.659Z,0
2017-09-03T00:25:32.873Z,0
2017-09-03T00:26:41.794Z,0
2017-09-03T00:27:50.640Z,0
2017-09-03T00:28:59.518Z,0
2017-09-03T00:30:08.453Z,0
2017-09-03T00:31:17.276Z,0
2017-09-03T00:32:26.279Z,0
2017-09-03T00:33:35.461Z,0
2017-09-03T00:34:44.316Z,0
2017-09-03T00:35:53.172Z,0
2017-09-03T00:37:01.996Z,0
2017-09-03T00:38:10.828Z,0
2017-09-03T00:39:19.658Z,0
2017-09-03T00:40:28.487Z,0
2017-09-03T00:41:37.316Z,0
2017-09-03T00:42:46.474Z,0
2017-09-03T00:43:55.299Z,0
2017-09-03T00:45:04.129Z,0
2017-09-03T00:46:12.962Z,0
2017-09-03T00:47:21.787Z,0
2017-09-03T00:48:30.617Z,0
2017-09-03T00:49:39.445Z,0
2017-09-03T00:50:48.276Z,0
2017-09-03T00:51:57.107Z,0
2017-09-03T00:53:05.931Z,0
2017-09-03T00:54:14.760Z,0
2017-09-03T00:55:23.589Z,0
2017-09-03T00:56:32.422Z,0
2017-09-03T00:57:41.245Z,0
2017-09-03T00:58:50.078Z,0
2017-09-03T00:59:58.907Z,0
2017-09-03T01:01:07.735Z,0
2017-09-03T01:02:16.563Z,0
2017-09-03T01:03:25.394Z,0
2017-09-03T01:04:34.223Z,0
2017-09-03T01:05:43.047Z,0
2017-09-03T01:06:51.872Z,0
2017-09-03T01:08:00.702Z,0
2017-09-03T01:09:09.529Z,0
2017-09-03T01:10:18.362Z,0
2017-09-03T01:11:27.186Z,0
2017-09-03T01:12:36.019Z,0
2017-09-03T01:13:44.846Z,0
2017-09-03T01:14:53.671Z,0
2017-09-03T01:16:02.498Z,0
2017-09-03T01:17:11.324Z,0
2017-09-03T01:18:20.151Z,0
2017-09-03T01:19:28.975Z,0
2017-09-03T01:20:37.808Z,0
2017-09-03T01:21:46.635Z,0
2017-09-03T01:22:55.458Z,0
2017-09-03T01:24:04.288Z,0
2017-09-03T01:25:13.117Z,0
2017-09-03T01:26:21.943Z,0
2017-09-03T01:27:30.771Z,0
2017-09-03T01:28:39.926Z,0
2017-09-03T01:29:48.755Z,0
2017-09-03T01:30:57.589Z,0
2017-09-03T01:32:06.739Z,0
2017-09-03T01:33:15.565Z,0
2017-09-03T01:34:24.390Z,0
2017-09-03T01:35:33.223Z,0
2017-09-03T01:36:42.048Z,0
2017-09-03T01:37:50.878Z,0
2017-09-03T01:38:59.703Z,0
2017-09-03T01:40:08.532Z,0
2017-09-03T01:41:17.686Z,0
2017-09-03T01:42:26.512Z,0
2017-09-03T01:43:35.337Z,0
2017-09-03T01:44:44.165Z,0
2017-09-03T01:45:52.996Z,0
2017-09-03T01:47:01.823Z,0
2017-09-03T01:48:10.650Z,0
2017-09-03T01:49:19.476Z,0
2017-09-03T01:50:28.299Z,0
2017-09-03T01:51:37.133Z,0
2017-09-03T01:52:45.959Z,0
2017-09-03T01:53:54.787Z,0
2017-09-03T01:55:03.611Z,0
2017-09-03T01:56:12.443Z,0
2017-09-03T01:57:21.271Z,0
2017-09-03T01:58:30.098Z,0
2017-09-03T01:59:38.928Z,0
2017-09-03T02:00:47.758Z,0
2017-09-03T02:01:56.580Z,0
2017-09-03T02:03:05.415Z,0
2017-09-03T02:04:14.237Z,0
2017-09-03T02:05:23.073Z,0
2017-09-03T02:06:31.900Z,0
2017-09-03T02:07:40.732Z,0
2017-09-03T02:08:49.553Z,0
2017-09-03T02:09:58.385Z,0
2017-09-03T02:11:07.214Z,0
2017-09-03T02:12:16.044Z,0
2017-09-03T02:13:24.872Z,0
2017-09-03T02:14:33.696Z,0
2017-09-03T02:15:42.526Z,0
2017-09-03T02:16:51.360Z,0
2017-09-03T02:18:00.183Z,0
2017-09-03T02:19:09.014Z,0
2017-09-03T02:20:17.839Z,0
2017-09-03T02:21:26.668Z,0
2017-09-03T02:22:35.494Z,0
2017-09-03T02:23:44.326Z,0
2017-09-03T02:24:53.151Z,0
2017-09-03T02:26:01.977Z,0
2017-09-03T02:27:10.813Z,0
2017-09-03T02:28:19.640Z,0
2017-09-03T02:29:28.464Z,0
2017-09-03T02:30:37.295Z,0
2017-09-03T02:31:46.123Z,0
2017-09-03T02:32:54.955Z,0
2017-09-03T02:34:03.784Z,0
2017-09-03T02:35:12.610Z,0
2017-09-03T02:36:21.435Z,0
2017-09-03T02:37:30.270Z,0
2017-09-03T02:38:39.102Z,0
2017-09-03T02:39:47.930Z,0
2017-09-03T02:40:56.755Z,0
2017-09-03T02:42:05.580Z,0
2017-09-03T02:43:14.414Z,0
2017-09-03T02:44:23.242Z,0
2017-09-03T02:45:32.392Z,0
2017-09-03T02:46:41.216Z,0
2017-09-03T02:47:50.043Z,0
2017-09-03T02:48:58.868Z,0
2017-09-03T02:50:07.694Z,0
2017-09-03T02:51:16.526Z,0
2017-09-03T02:52:25.355Z,0
2017-09-03T02:53:34.180Z,0
2017-09-03T02:54:43.008Z,0
2017-09-03T02:55:51.836Z,0
2017-09-03T02:57:00.669Z,0
2017-09-03T02:58:09.494Z,0
2017-09-03T02:59:18.324Z,0
2017-09-03T03:00:27.149Z,0
2017-09-03T03:01:35.980Z,0
2017-09-03T03:02:44.807Z,0
2017-09-03T03:03:53.631Z,0
2017-09-03T03:05:02.467Z,0
2017-09-03T03:06:11.294Z,0
2017-09-03T03:07:20.122Z,0
2017-09-03T03:08:28.953Z,0
2017-09-03T03:09:37.783Z,0
2017-09-03T03:10:46.612Z,0
2017-09-03T03:11:55.439Z,0
2017-09-03T03:13:04.316Z,0
2017-09-03T03:14:13.143Z,0
2017-09-03T03:15:21.967Z,0
2017-09-03T03:16:30.795Z,0
2017-09-03T03:17:39.620Z,0
2017-09-03T03:18:48.447Z,0
2017-09-03T03:19:57.270Z,0
2017-09-03T03:21:06.105Z,0
2017-09-03T03:22:14.932Z,0
2017-09-03T03:23:23.756Z,0
2017-09-03T03:24:32.584Z,0
2017-09-03T03:25:41.411Z,0
2017-09-03T03:26:50.238Z,0
2017-09-03T03:27:59.399Z,0
2017-09-03T03:29:08.222Z,0
2017-09-03T03:30:17.373Z,0
2017-09-03T03:31:26.199Z,0
2017-09-03T03:32:35.029Z,0
2017-09-03T03:33:43.858Z,0
2017-09-03T03:34:52.684Z,0
2017-09-03T03:36:01.514Z,0
2017-09-03T03:37:10.339Z,0
2017-09-03T03:38:19.170Z,0
2017-09-03T03:39:27.995Z,0
2017-09-03T03:40:36.824Z,0
2017-09-03T03:41:45.648Z,0
2017-09-03T03:42:54.476Z,0
2017-09-03T03:44:03.632Z,0
2017-09-03T03:45:12.456Z,0
2017-09-03T03:46:21.288Z,0
2017-09-03T03:47:30.431Z,0
2017-09-03T03:48:39.260Z,0
2017-09-03T03:49:48.091Z,0
2017-09-03T03:50:56.915Z,0
2017-09-03T03:52:05.742Z,0
2017-09-03T03:53:14.571Z,0
2017-09-03T03:54:23.394Z,0
2017-09-03T03:55:32.219Z,0
2017-09-03T03:56:41.050Z,0
2017-09-03T03:57:49.876Z,0
2017-09-03T03:58:58.701Z,0
2017-09-03T04:00:07.874Z,0
2017-09-03T04:01:16.700Z,0
2017-09-03T04:02:25.533Z,0
2017-09-03T04:03:34.689Z,0
2017-09-03T04:04:43.513Z,0
2017-09-03T04:05:52.341Z,0
2017-09-03T04:07:01.170Z,0
2017-09-03T04:08:09.994Z,0
2017-09-03T04:09:18.823Z,0
2017-09-03T04:10:27.655Z,0
2017-09-03T04:11:36.477Z,0
2017-09-03T04:12:45.301Z,0
2017-09-03T04:13:54.135Z,0
2017-09-03T04:15:03.282Z,0
2017-09-03T04:16:12.110Z,0
2017-09-03T04:17:20.935Z,0
2017-09-03T04:18:29.763Z,0
2017-09-03T04:19:38.911Z,0
2017-09-03T04:20:48.064Z,0
2017-09-03T04:21:56.892Z,0
2017-09-03T04:23:05.721Z,0
2017-09-03T04:24:14.547Z,0
2017-09-03T04:25:23.368Z,0
2017-09-03T04:26:32.198Z,0
2017-09-03T04:27:41.028Z,0
2017-09-03T04:28:49.851Z,0
2017-09-03T04:29:58.676Z,0
2017-09-03T04:31:07.499Z,0
2017-09-03T04:32:16.326Z,0
2017-09-03T04:33:25.155Z,0
2017-09-03T04:34:33.979Z,0
2017-09-03T04:35:42.809Z,0
2017-09-03T04:36:51.634Z,0
2017-09-03T04:38:00.462Z,0
2017-09-03T04:39:09.288Z,0
2017-09-03T04:40:18.120Z,0
2017-09-03T04:41:26.947Z,0
2017-09-03T04:42:35.770Z,0
2017-09-03T04:43:44.601Z,0
2017-09-03T04:44:53.427Z,0
2017-09-03T04:46:02.256Z,0
2017-09-03T04:47:11.083Z,0
2017-09-03T04:48:19.910Z,0
2017-09-03T04:49:28.732Z,5
2017-09-03T04:50:37.561Z,5
2017-09-03T04:51:46.389Z,5
2017-09-03T04:52:55.545Z,5
2017-09-03T04:54:04.375Z,5
2017-09-03T04:55:13.200Z,5
2017-09-03T04:56:22.024Z,5
2017-09-03T04:57:31.180Z,5
2017-09-03T04:58:40.009Z,5
2017-09-03T04:59:48.841Z,5
2017-09-03T05:00:57.670Z,5
2017-09-03T05:02:06.498Z,5
2017-09-03T05:03:15.326Z,5
2017-09-03T05:04:24.244Z,5
2017-09-03T05:05:33.178Z,5
2017-09-03T05:06:42.072Z,5
2017-09-03T05:07:51.281Z,5
2017-09-03T05:09:00.424Z,5
2017-09-03T05:10:09.433Z,5
2017-09-03T05:11:18.697Z,5
2017-09-03T05:12:27.594Z,5
2017-09-03T05:13:36.463Z,5
2017-09-03T05:14:45.346Z,5
2017-09-03T05:15:54.245Z,10
2017-09-03T05:17:03.196Z,10
2017-09-03T05:18:12.149Z,10
2017-09-03T05:19:21.093Z,10
2017-09-03T05:20:29.954Z,10
2017-09-03T05:21:38.928Z,10
2017-09-03T05:22:47.837Z,10
2017-09-03T05:23:57.261Z,10
2017-09-03T05:25:06.873Z,10
2017-09-03T05:26:15.789Z,10
2017-09-03T05:27:24.618Z,10
2017-09-03T05:28:33.797Z,10
2017-09-03T05:29:42.623Z,10
2017-09-03T05:30:51.518Z,10
2017-09-03T05:32:00.345Z,10
2017-09-03T05:33:09.176Z,15
2017-09-03T05:34:18.070Z,15
2017-09-03T05:35:26.899Z,15
2017-09-03T05:36:35.810Z,15
2017-09-03T05:37:44.699Z,15
2017-09-03T05:38:53.624Z,15
2017-09-03T05:40:02.453Z,15
2017-09-03T05:41:11.462Z,15
2017-09-03T05:42:20.334Z,15
2017-09-03T05:43:29.236Z,15
2017-09-03T05:44:38.163Z,15
2017-09-03T05:45:46.988Z,15
2017-09-03T05:46:55.888Z,20
2017-09-03T05:48:04.755Z,20
2017-09-03T05:49:13.654Z,20
2017-09-03T05:50:22.484Z,20
2017-09-03T05:51:31.387Z,20
2017-09-03T05:52:40.217Z,20
2017-09-03T05:53:49.096Z,20
2017-09-03T05:54:58.040Z,20
2017-09-03T05:56:06.866Z,20
2017-09-03T05:57:15.825Z,20
2017-09-03T05:58:24.649Z,20
2017-09-03T05:59:33.929Z,20
2017-09-03T06:00:43.243Z,20
2017-09-03T06:01:52.167Z,20
2017-09-03T06:03:01.094Z,20
2017-09-03T06:04:09.918Z,25
2017-09-03T06:05:18.882Z,25
2017-09-03T06:06:28.562Z,25
2017-09-03T06:07:37.811Z,25
2017-09-03T06:08:46.690Z,25
2017-09-03T06:09:55.572Z,25
2017-09-03T06:11:04.399Z,25
2017-09-03T06:12:13.595Z,25
2017-09-03T06:13:22.431Z,25
2017-09-03T06:14:31.928Z,25
2017-09-03T06:15:40.749Z,25
2017-09-03T06:16:49.575Z,25
2017-09-03T06:17:58.404Z,25
2017-09-03T06:19:07.238Z,25
2017-09-03T06:20:16.060Z,25
2017-09-03T06:21:24.892Z,25
2017-09-03T06:22:33.711Z,25
2017-09-03T06:23:42.548Z,25
2017-09-03T06:24:51.377Z,25
2017-09-03T06:26:00.204Z,25
2017-09-03T06:27:09.034Z,25
2017-09-03T06:28:17.862Z,25
2017-09-03T06:29:26.694Z,25
2017-09-03T06:30:35.525Z,25
2017-09-03T06:31:44.351Z,25
2017-09-03T06:32:53.178Z,25
2017-09-03T06:34:02.019Z,25
2017-09-03T06:35:10.845Z,25
2017-09-03T06:36:19.698Z,25
2017-09-03T06:37:28.510Z,25
2017-09-03T06:38:37.337Z,25
2017-09-03T06:39:46.171Z,30
2017-09-03T06:40:55.331Z,30
2017-09-03T06:42:04.153Z,30
2017-09-03T06:43:12.983Z,30
2017-09-03T06:44:21.811Z,30
2017-09-03T06:45:30.643Z,30
2017-09-03T06:46:39.478Z,30
2017-09-03T06:47:48.310Z,30
2017-09-03T06:48:57.139Z,35
2017-09-03T06:50:06.297Z,35
2017-09-03T06:51:15.121Z,35
2017-09-03T06:52:23.947Z,35
2017-09-03T06:53:32.836Z,35
2017-09-03T06:54:41.665Z,35
2017-09-03T06:55:50.490Z,35
2017-09-03T06:56:59.333Z,35
2017-09-03T06:58:08.162Z,35
2017-09-03T06:59:17.013Z,35
2017-09-03T07:00:25.851Z,35
2017-09-03T07:01:35.604Z,35
2017-09-03T07:02:46.064Z,35
2017-09-03T07:03:55.727Z,40
2017-09-03T07:05:04.661Z,40
2017-09-03T07:06:13.493Z,40
2017-09-03T07:07:22.324Z,40
2017-09-03T07:08:31.267Z,45
2017-09-03T07:09:40.430Z,45
2017-09-03T07:10:49.485Z,45
2017-09-03T07:11:58.752Z,45
2017-09-03T07:13:07.806Z,45
2017-09-03T07:14:16.771Z,45
2017-09-03T10:31:31.748Z,20
2017-09-03T10:32:40.967Z,15
2017-09-03T10:33:49.798Z,15
2017-09-03T10:34:58.637Z,15
2017-09-03T10:36:07.529Z,15
2017-09-03T10:37:16.361Z,20
2017-09-03T10:38:25.216Z,20
2017-09-03T10:39:34.087Z,20
2017-09-03T10:40:43.033Z,25
2017-09-03T10:41:51.947Z,25
2017-09-03T10:43:00.807Z,25
2017-09-03T10:44:09.706Z,30
2017-09-03T10:45:18.984Z,35
2017-09-03T10:46:28.458Z,40
2017-09-03T10:47:37.327Z,40
2017-09-03T10:48:46.206Z,35
2017-09-03T10:49:55.137Z,35
2017-09-03T10:51:04.083Z,35
2017-09-03T10:52:12.931Z,35
2017-09-03T10:53:22.044Z,35
2017-09-03T10:54:31.274Z,35
2017-09-03T10:55:40.118Z,35
2017-09-03T10:56:49.057Z,35
2017-09-03T10:57:57.989Z,35
2017-09-03T10:59:06.878Z,35
2017-09-03T11:00:15.721Z,35
2017-09-03T11:01:24.575Z,35
2017-09-03T11:02:33.378Z,35
2017-09-03T11:03:42.208Z,35
2017-09-03T11:04:51.040Z,40
2017-09-03T11:05:59.875Z,50
2017-09-03T11:07:08.705Z,55
2017-09-03T11:08:17.530Z,55
2017-09-03T11:09:26.686Z,50
2017-09-03T11:10:35.523Z,55
2017-09-03T11:11:44.347Z,55
2017-09-03T11:12:53.185Z,60
2017-09-03T11:14:02.009Z,70
2017-09-03T11:15:10.839Z,65
2017-09-03T11:16:19.787Z,65
2017-09-03T11:17:28.616Z,70
2017-09-03T11:18:37.589Z,85
2017-09-03T11:19:46.467Z,95
2017-09-03T11:20:55.395Z,85
2017-09-03T11:22:04.223Z,80
2017-09-03T11:23:13.458Z,70
2017-09-03T11:24:22.343Z,60
2017-09-03T11:25:31.207Z,65
2017-09-03T11:26:40.104Z,45
2017-09-03T11:27:49.332Z,30
2017-09-03T11:28:58.499Z,30
2017-09-03T11:30:07.383Z,35
2017-09-03T11:31:16.261Z,45
2017-09-03T11:32:25.212Z,55
2017-09-03T11:33:34.039Z,35
2017-09-03T11:34:42.967Z,60
2017-09-03T11:35:52.131Z,65
2017-09-03T11:37:00.986Z,75
2017-09-03T11:38:09.903Z,65
2017-09-03T11:39:18.740Z,65
2017-09-03T11:40:27.654Z,55
2017-09-03T11:41:36.488Z,65
2017-09-03T11:42:45.716Z,65
2017-09-03T11:43:54.900Z,75
2017-09-03T11:45:03.794Z,75
2017-09-03T11:46:12.711Z,75
2017-09-03T11:47:21.582Z,80
2017-09-03T11:48:30.440Z,50
2017-09-03T11:49:39.313Z,60
2017-09-03T11:50:48.145Z,55
2017-09-03T11:51:57.019Z,65
2017-09-03T11:53:06.183Z,60
2017-09-03T11:54:15.080Z,40
2017-09-03T11:55:24.095Z,40
2017-09-03T11:56:33.685Z,65
2017-09-03T11:57:42.893Z,60
2017-09-03T11:58:51.721Z,55
2017-09-03T12:00:00.555Z,70
2017-09-03T12:01:09.386Z,60
2017-09-03T12:02:18.211Z,65
2017-09-03T12:03:27.048Z,40
2017-09-03T12:04:35.877Z,40
2017-09-03T12:05:44.711Z,40
2017-09-03T12:06:53.542Z,45
2017-09-03T12:08:02.407Z,50
2017-09-03T12:09:11.237Z,75
2017-09-03T12:10:20.072Z,85
2017-09-03T12:11:28.897Z,90
2017-09-03T12:12:37.728Z,80
2017-09-03T12:13:46.561Z,75
2017-09-03T12:14:55.394Z,70
2017-09-03T12:16:04.218Z,70
2017-09-03T12:17:13.051Z,70
2017-09-03T12:18:21.880Z,80
2017-09-03T12:19:30.710Z,75
2017-09-03T12:20:39.544Z,60
2017-09-03T12:21:48.372Z,60
2017-09-03T12:22:57.198Z,60
2017-09-03T12:24:06.030Z,65
2017-09-03T12:25:14.859Z,70
2017-09-03T12:26:23.699Z,75
2017-09-03T12:27:32.528Z,70
2017-09-03T12:28:41.369Z,55
2017-09-03T12:29:50.198Z,55
2017-09-03T12:30:59.029Z,60
2017-09-03T12:32:07.862Z,35
2017-09-03T12:33:16.694Z,35
2017-09-03T12:34:25.525Z,30
2017-09-03T12:35:34.355Z,35
2017-09-03T12:36:43.197Z,30
2017-09-03T12:37:52.028Z,30
2017-09-03T12:39:00.863Z,30
2017-09-03T12:40:09.704Z,35
2017-09-03T12:41:18.533Z,35
2017-09-03T12:42:27.686Z,35
2017-09-03T12:43:36.514Z,30
2017-09-03T12:44:45.346Z,30
2017-09-03T12:45:54.181Z,30
2017-09-03T12:47:03.016Z,25
2017-09-03T12:48:11.852Z,25
2017-09-03T12:49:20.682Z,15
2017-09-03T12:50:29.520Z,10
2017-09-03T12:51:38.360Z,10
2017-09-03T12:52:47.190Z,10
2017-09-03T12:53:56.018Z,15
2017-09-03T12:55:05.411Z,15
2017-09-03T12:56:14.239Z,20
2017-09-03T12:57:23.079Z,25
2017-09-03T12:58:31.907Z,25
2017-09-03T12:59:40.733Z,30
2017-09-03T13:00:49.569Z,30
2017-09-03T13:01:58.397Z,30
2017-09-03T13:03:07.237Z,35
2017-09-03T13:04:16.062Z,35
2017-09-03T13:05:24.998Z,40
2017-09-03T13:06:33.906Z,45
2017-09-03T13:07:42.737Z,50
2017-09-03T13:08:51.770Z,50
2017-09-03T13:10:00.608Z,50
2017-09-03T13:11:09.438Z,55
2017-09-03T13:12:18.586Z,55
2017-09-03T13:13:27.472Z,55
2017-09-03T13:14:36.303Z,55
2017-09-03T13:15:45.329Z,60
2017-09-03T13:16:54.160Z,55
2017-09-03T13:18:03.088Z,55
2017-09-03T13:19:11.918Z,60
2017-09-03T13:20:20.816Z,55
2017-09-03T13:21:29.767Z,55
2017-09-03T13:22:38.764Z,55
2017-09-03T13:23:47.769Z,50
2017-09-03T13:24:56.679Z,45
2017-09-03T13:26:05.958Z,50
2017-09-03T13:27:14.786Z,50
2017-09-03T13:28:23.794Z,50
2017-09-03T13:29:32.626Z,45
2017-09-03T13:30:41.593Z,40
2017-09-03T13:31:50.430Z,35
2017-09-03T13:32:59.288Z,35
2017-09-03T13:34:08.210Z,30
2017-09-03T13:35:17.039Z,35
2017-09-03T13:36:25.937Z,40
2017-09-03T13:37:34.922Z,40
2017-09-03T13:38:44.058Z,45
2017-09-03T13:39:52.950Z,45
2017-09-03T13:41:01.780Z,45
2017-09-03T13:42:10.655Z,45
2017-09-03T13:43:19.579Z,45
2017-09-03T13:44:28.405Z,50
2017-09-03T13:45:37.314Z,45
2017-09-03T13:46:46.144Z,45
2017-09-03T13:47:55.608Z,45
2017-09-03T13:49:04.433Z,50
2017-09-03T13:50:13.291Z,50
2017-09-03T13:51:22.533Z,55
2017-09-03T13:52:31.537Z,60
2017-09-03T13:53:40.368Z,60
2017-09-03T13:54:49.194Z,60
2017-09-03T13:55:58.030Z,55
2017-09-03T13:57:06.867Z,55
2017-09-03T13:58:15.792Z,55
2017-09-03T13:59:24.620Z,60
2017-09-03T14:00:33.646Z,55
2017-09-03T14:01:42.470Z,55
2017-09-03T14:02:51.307Z,50
2017-09-03T14:04:00.322Z,45
2017-09-03T14:05:09.159Z,45
2017-09-03T14:06:18.144Z,45
2017-09-03T14:07:27.042Z,45
2017-09-03T14:08:35.941Z,40
2017-09-03T14:09:44.774Z,40
2017-09-03T14:10:53.672Z,35
2017-09-03T14:12:02.507Z,35
2017-09-03T14:13:11.335Z,30
2017-09-03T14:14:20.230Z,25
2017-09-03T14:15:29.058Z,25
2017-09-03T14:16:37.941Z,25
2017-09-03T14:17:46.771Z,30
2017-09-03T14:18:55.651Z,30
2017-09-03T14:20:04.478Z,35
2017-09-03T14:21:13.660Z,35
2017-09-03T14:22:22.486Z,35
2017-09-03T14:23:31.339Z,30
2017-09-03T14:24:40.264Z,35
2017-09-03T14:25:49.096Z,40
2017-09-03T14:26:58.025Z,40
2017-09-03T14:28:06.856Z,40
2017-09-03T14:29:15.766Z,40
2017-09-03T14:30:24.600Z,40
2017-09-03T14:31:33.530Z,40
2017-09-03T14:32:42.646Z,40
2017-09-03T14:33:51.543Z,40
2017-09-03T14:35:01.105Z,40
2017-09-03T14:36:10.016Z,40
2017-09-03T14:37:19.214Z,40
2017-09-03T14:38:29.007Z,40
2017-09-03T14:39:38.523Z,45
2017-09-03T14:40:47.376Z,45
2017-09-03T14:41:56.216Z,45
2017-09-03T14:43:05.050Z,50
2017-09-03T14:44:14.080Z,45
2017-09-03T14:45:22.928Z,45
2017-09-03T14:46:31.753Z,50
2017-09-03T14:47:40.955Z,50
2017-09-03T14:48:49.788Z,35
2017-09-03T14:49:58.888Z,40
2017-09-03T14:51:07.726Z,40
2017-09-03T14:52:16.565Z,40
2017-09-03T14:53:25.389Z,35
2017-09-03T14:54:34.218Z,35
2017-09-03T14:55:43.225Z,30
2017-09-03T14:56:52.060Z,30
2017-09-03T14:58:00.951Z,30
2017-09-03T14:59:10.006Z,30
2017-09-03T15:00:18.835Z,30
2017-09-03T15:01:28.057Z,25
2017-09-03T15:02:36.884Z,25
2017-09-03T15:03:45.728Z,25
2017-09-03T15:04:54.558Z,20
2017-09-03T15:06:03.834Z,25
2017-09-03T15:07:13.059Z,25
2017-09-03T15:08:21.905Z,25
2017-09-03T15:09:30.994Z,25
2017-09-03T15:10:40.020Z,20
2017-09-03T15:11:48.992Z,25
2017-09-03T15:12:57.821Z,25
2017-09-03T15:14:06.731Z,25
2017-09-03T15:15:15.953Z,30
2017-09-03T15:16:24.914Z,30
2017-09-03T15:17:33.775Z,30
2017-09-03T15:18:42.680Z,35
2017-09-03T15:19:51.517Z,30
2017-09-03T15:21:00.401Z,35
2017-09-03T15:22:09.255Z,35
2017-09-03T15:23:18.427Z,30
2017-09-03T15:24:27.664Z,30
2017-09-03T15:25:36.535Z,30
2017-09-03T15:26:45.422Z,30
2017-09-03T15:27:54.311Z,25
2017-09-03T15:29:03.285Z,25
2017-09-03T15:30:12.153Z,25
2017-09-03T15:31:21.075Z,25
2017-09-03T15:32:29.904Z,25
2017-09-03T15:33:39.058Z,25
2017-09-03T15:34:47.964Z,25
2017-09-03T15:35:56.859Z,20
2017-09-03T15:37:05.697Z,20
2017-09-03T15:38:14.855Z,20
2017-09-03T15:39:23.830Z,20
2017-09-03T15:40:32.698Z,15
2017-09-03T15:41:41.661Z,15
2017-09-03T15:42:50.585Z,15
2017-09-03T15:43:59.487Z,15
2017-09-03T15:45:08.337Z,15
2017-09-03T15:46:17.249Z,15
2017-09-03T15:47:26.081Z,15
2017-09-03T15:48:34.912Z,15
2017-09-03T15:49:43.749Z,15
2017-09-03T15:50:52.577Z,15
2017-09-03T15:52:01.408Z,10
2017-09-03T15:53:10.387Z,10
2017-09-03T15:54:19.226Z,10
2017-09-03T15:55:28.380Z,10
2017-09-03T15:56:37.216Z,10
2017-09-03T15:57:46.044Z,10
2017-09-03T15:58:54.882Z,5
2017-09-03T16:00:03.711Z,5
2017-09-03T16:01:12.544Z,5
2017-09-03T16:02:21.373Z,5
2017-09-03T16:03:30.210Z,0
2017-09-03T16:04:39.039Z,5
2017-09-03T16:05:47.874Z,5
2017-09-03T16:06:56.726Z,5
2017-09-03T16:08:05.556Z,5
2017-09-03T16:09:14.394Z,5
2017-09-03T16:10:23.223Z,5
2017-09-03T16:11:32.050Z,5
2017-09-03T16:12:40.888Z,5
2017-09-03T16:13:50.040Z,5
2017-09-03T16:14:58.873Z,5
2017-09-03T16:16:07.705Z,5
2017-09-03T16:17:16.541Z,5
2017-09-03T16:18:25.369Z,5
2017-09-03T16:19:34.203Z,5
2017-09-03T16:20:43.359Z,5
2017-09-03T16:21:52.188Z,5
2017-09-03T16:23:01.022Z,5
2017-09-03T16:24:10.169Z,5
2017-09-03T16:25:19.001Z,5
2017-09-03T16:26:27.833Z,5
2017-09-03T16:27:36.665Z,5
2017-09-03T16:28:45.500Z,5
2017-09-03T16:29:54.328Z,5
2017-09-03T16:31:03.512Z,5
2017-09-03T16:32:12.364Z,5
2017-09-03T16:33:21.168Z,5
2017-09-03T16:34:29.998Z,5
2017-09-03T16:35:38.834Z,5
2017-09-03T16:36:47.668Z,5
2017-09-03T16:37:56.496Z,5
2017-09-03T16:39:05.326Z,5
2017-09-03T16:40:14.197Z,0
2017-09-03T16:41:23.097Z,0
2017-09-03T16:42:32.031Z,0
2017-09-03T16:43:40.885Z,0
2017-09-03T16:44:49.917Z,5
2017-09-03T16:45:58.825Z,5
2017-09-03T16:47:07.683Z,5
2017-09-03T16:48:16.515Z,5
2017-09-03T16:49:25.349Z,5
2017-09-03T16:50:34.179Z,5
2017-09-03T16:51:43.072Z,5
2017-09-03T16:52:51.905Z,5
2017-09-03T16:54:00.746Z,10
2017-09-03T16:55:09.758Z,10
2017-09-03T16:56:18.622Z,10
2017-09-03T16:57:27.451Z,10
2017-09-03T16:58:36.737Z,10
2017-09-03T16:59:45.645Z,10
2017-09-03T17:00:54.482Z,10
2017-09-03T17:02:03.437Z,10
2017-09-03T17:03:12.262Z,10
2017-09-03T17:04:21.110Z,10
2017-09-03T17:05:29.963Z,10
2017-09-03T17:06:38.836Z,15
2017-09-03T17:07:47.661Z,15
2017-09-03T17:08:56.506Z,10
2017-09-03T17:10:05.354Z,10
2017-09-03T17:11:14.209Z,10
2017-09-03T17:12:23.052Z,10
2017-09-03T17:13:31.902Z,5
2017-09-03T17:14:40.762Z,5
2017-09-03T17:15:49.614Z,5
2017-09-03T17:16:58.458Z,5
2017-09-03T17:18:07.304Z,5
2017-09-03T17:19:16.154Z,5
2017-09-03T17:20:25.002Z,5
2017-09-03T17:21:33.850Z,5
2017-09-03T17:22:42.697Z,5
2017-09-03T17:23:51.550Z,5
2017-09-03T17:25:00.409Z,5
2017-09-03T17:26:09.256Z,5
2017-09-03T17:27:18.098Z,5
2017-09-03T17:28:26.948Z,0
2017-09-03T17:29:36.127Z,0
2017-09-03T17:30:44.982Z,0
2017-09-03T17:31:53.835Z,0
2017-09-03T17:33:02.681Z,0
2017-09-03T17:34:11.532Z,0
2017-09-03T17:35:20.367Z,0
2017-09-03T17:36:29.218Z,0
2017-09-03T17:37:38.071Z,0
2017-09-03T17:38:46.919Z,0
2017-09-03T17:39:55.774Z,0
2017-09-03T17:41:04.623Z,0
2017-09-03T17:42:13.482Z,0
2017-09-03T17:43:22.328Z,0
2017-09-03T17:44:31.170Z,0
2017-09-03T17:45:40.023Z,0
2017-09-03T17:46:48.881Z,0
2017-09-03T17:47:57.713Z,0
2017-09-03T17:49:06.551Z,0
2017-09-03T17:50:15.384Z,0
2017-09-03T17:51:24.210Z,0
2017-09-03T17:52:33.365Z,0
2017-09-03T17:53:42.201Z,0
2017-09-03T17:54:51.028Z,0
2017-09-03T17:55:59.860Z,0
2017-09-03T17:57:08.689Z,0
2017-09-03T17:58:17.521Z,0
2017-09-03T17:59:26.352Z,0
2017-09-03T18:00:35.186Z,0
2017-09-03T18:01:44.023Z,0
2017-09-03T18:02:52.854Z,0
2017-09-03T18:04:02.006Z,0
2017-09-03T18:05:10.831Z,0
2017-09-03T18:06:19.665Z,0
2017-09-03T18:07:28.549Z,0
2017-09-03T18:08:37.712Z,0
2017-09-03T18:09:46.602Z,0
2017-09-03T18:10:55.433Z,0
2017-09-03T18:12:04.653Z,0
2017-09-03T18:13:13.494Z,0
2017-09-03T18:14:22.369Z,0
2017-09-03T18:15:31.224Z,0
2017-09-03T18:16:40.052Z,0
2017-09-03T18:17:48.882Z,0
2017-09-03T18:18:57.712Z,0
2017-09-03T18:20:06.609Z,0
2017-09-03T18:21:15.433Z,0
2017-09-03T18:22:24.319Z,0
2017-09-03T18:23:33.233Z,0
2017-09-03T18:24:42.157Z,0
2017-09-03T18:25:51.019Z,0
2017-09-03T18:26:59.916Z,0
2017-09-03T18:28:08.791Z,0
2017-09-03T18:29:17.621Z,0
2017-09-03T18:30:26.458Z,0
2017-09-03T18:31:35.283Z,0
2017-09-03T18:32:44.159Z,0
2017-09-03T18:33:53.153Z,0
2017-09-03T18:35:01.980Z,0
2017-09-03T18:36:10.911Z,0
2017-09-03T18:37:19.742Z,0
2017-09-03T18:38:29.023Z,0
2017-09-03T18:39:37.860Z,0
2017-09-03T18:40:46.744Z,0
2017-09-03T18:41:55.866Z,0
2017-09-03T18:43:04.696Z,0
2017-09-03T18:44:13.690Z,0
2017-09-03T18:45:22.768Z,0
2017-09-03T18:46:31.957Z,0
2017-09-03T18:47:41.006Z,0
2017-09-03T18:48:49.848Z,0
2017-09-03T18:49:58.697Z,0
2017-09-03T18:51:07.540Z,0
2017-09-03T18:52:16.800Z,0
2017-09-03T18:53:25.631Z,0
2017-09-03T18:54:34.506Z,0
2017-09-03T18:55:43.356Z,0
2017-09-03T18:56:52.238Z,0
2017-09-03T18:58:01.078Z,0
2017-09-03T18:59:09.953Z,0
2017-09-03T19:00:18.896Z,0
2017-09-03T19:01:27.778Z,0
2017-09-03T19:02:36.705Z,0
2017-09-03T19:03:45.865Z,0
2017-09-03T19:04:54.841Z,0
2017-09-03T19:06:03.727Z,0
2017-09-03T19:07:12.617Z,0
2017-09-03T19:08:21.507Z,0
2017-09-03T19:09:30.386Z,0
2017-09-03T19:10:39.253Z,0
2017-09-03T19:11:48.238Z,0
2017-09-03T19:12:57.231Z,0
2017-09-03T19:14:06.060Z,0
2017-09-03T19:15:14.959Z,0
2017-09-03T19:16:23.797Z,0
2017-09-03T19:17:32.747Z,0
2017-09-03T19:18:41.633Z,0
2017-09-03T19:19:50.860Z,0
2017-09-03T19:20:59.677Z,0
2017-09-03T19:22:08.524Z,0
2017-09-03T19:23:17.498Z,0
2017-09-03T19:24:26.332Z,0
2017-09-03T19:25:35.178Z,0
2017-09-03T19:26:44.039Z,0
2017-09-03T19:27:53.067Z,0
2017-09-03T19:29:01.924Z,0
2017-09-03T19:30:10.777Z,0
2017-09-03T19:31:19.696Z,0
2017-09-03T19:32:28.974Z,0
2017-09-03T19:33:37.865Z,0
2017-09-03T19:34:46.768Z,0
2017-09-03T19:35:55.684Z,0
2017-09-03T19:37:04.602Z,0
2017-09-03T19:38:13.451Z,0
2017-09-03T19:39:22.423Z,0
2017-09-03T19:40:31.283Z,0
2017-09-03T19:41:40.908Z,0
2017-09-03T19:42:49.854Z,0
2017-09-03T19:43:58.683Z,0
2017-09-03T19:45:07.597Z,0
2017-09-03T19:46:16.428Z,0
2017-09-03T19:47:25.301Z,0
2017-09-03T19:48:34.178Z,0
2017-09-03T19:49:43.044Z,0
2017-09-03T19:50:51.995Z,0
2017-09-03T19:52:00.879Z,0
2017-09-03T19:53:09.792Z,0
2017-09-03T19:54:18.620Z,0
2017-09-03T19:55:27.508Z,0
2017-09-03T19:56:36.339Z,0
2017-09-03T19:57:45.552Z,0